sensor_id;sensor_type;location;lat;lon;timestamp;P1;durP1;ratioP1;P2;durP2;ratioP2
20379;SDS011;10349;48.666;8.948;2023-07-09T00:02:15;5.17;;;4.77;;
20379;SDS011;10349;48.666;8.948;2023-07-09T00:04:41;4.23;;;3.83;;
20379;SDS011;10349;48.666;8.948;2023-07-09T00:07:11;4.80;;;4.40;;
20379;SDS011;10349;48.666;8.948;2023-07-09T00:09:43;4.47;;;4.17;;
20379;SDS011;10349;48.666;8.948;2023-07-09T00:12:12;4.93;;;4.53;;
20379;SDS011;10349;48.666;8.948;2023-07-09T00:14:39;6.23;;;5.73;;
20379;SDS011;10349;48.666;8.948;2023-07-09T00:17:15;4.90;;;4.43;;
20379;SDS011;10349;48.666;8.948;2023-07-09T00:19:59;3.50;;;3.30;;
20379;SDS011;10349;48.666;8.948;2023-07-09T00:22:25;3.90;;;3.60;;
20379;SDS011;10349;48.666;8.948;2023-07-09T00:24:52;4.53;;;4.17;;
20379;SDS011;10349;48.666;8.948;2023-07-09T00:27:24;4.97;;;4.33;;
20379;SDS011;10349;48.666;8.948;2023-07-09T00:29:52;4.07;;;3.67;;
20379;SDS011;10349;48.666;8.948;2023-07-09T00:32:19;5.40;;;3.87;;
20379;SDS011;10349;48.666;8.948;2023-07-09T00:34:50;5.20;;;4.20;;
20379;SDS011;10349;48.666;8.948;2023-07-09T00:37:18;3.77;;;3.50;;
20379;SDS011;10349;48.666;8.948;2023-07-09T00:39:46;4.63;;;4.20;;
20379;SDS011;10349;48.666;8.948;2023-07-09T00:42:20;6.90;;;4.07;;
20379;SDS011;10349;48.666;8.948;2023-07-09T00:44:50;6.93;;;4.03;;
20379;SDS011;10349;48.666;8.948;2023-07-09T00:50:11;5.80;;;4.00;;
20379;SDS011;10349;48.666;8.948;2023-07-09T00:52:51;4.17;;;3.87;;
20379;SDS011;10349;48.666;8.948;2023-07-09T00:55:21;4.47;;;4.17;;
20379;SDS011;10349;48.666;8.948;2023-07-09T00:57:50;4.73;;;4.43;;
20379;SDS011;10349;48.666;8.948;2023-07-09T01:00:24;4.23;;;3.90;;
20379;SDS011;10349;48.666;8.948;2023-07-09T01:03:14;6.33;;;3.70;;
20379;SDS011;10349;48.666;8.948;2023-07-09T01:05:47;4.90;;;4.03;;
20379;SDS011;10349;48.666;8.948;2023-07-09T01:08:20;4.77;;;4.40;;
20379;SDS011;10349;48.666;8.948;2023-07-09T01:10:46;5.83;;;4.93;;
20379;SDS011;10349;48.666;8.948;2023-07-09T01:13:13;4.13;;;3.83;;
20379;SDS011;10349;48.666;8.948;2023-07-09T01:15:39;5.10;;;4.50;;
20379;SDS011;10349;48.666;8.948;2023-07-09T01:18:05;6.37;;;3.97;;
20379;SDS011;10349;48.666;8.948;2023-07-09T01:20:31;3.77;;;3.57;;
20379;SDS011;10349;48.666;8.948;2023-07-09T01:22:58;4.27;;;3.97;;
20379;SDS011;10349;48.666;8.948;2023-07-09T01:25:26;4.10;;;3.80;;
20379;SDS011;10349;48.666;8.948;2023-07-09T01:27:53;5.63;;;5.17;;
20379;SDS011;10349;48.666;8.948;2023-07-09T01:30:21;6.43;;;4.10;;
20379;SDS011;10349;48.666;8.948;2023-07-09T01:32:56;4.70;;;4.37;;
20379;SDS011;10349;48.666;8.948;2023-07-09T01:35:23;4.23;;;3.83;;
20379;SDS011;10349;48.666;8.948;2023-07-09T01:37:49;3.80;;;3.60;;
20379;SDS011;10349;48.666;8.948;2023-07-09T01:40:17;4.03;;;3.63;;
20379;SDS011;10349;48.666;8.948;2023-07-09T01:42:45;4.90;;;4.40;;
20379;SDS011;10349;48.666;8.948;2023-07-09T01:45:11;4.40;;;4.00;;
20379;SDS011;10349;48.666;8.948;2023-07-09T01:47:38;4.43;;;4.03;;
20379;SDS011;10349;48.666;8.948;2023-07-09T01:50:05;4.57;;;4.17;;
20379;SDS011;10349;48.666;8.948;2023-07-09T01:52:31;4.73;;;4.40;;
20379;SDS011;10349;48.666;8.948;2023-07-09T01:55:00;4.60;;;4.10;;
20379;SDS011;10349;48.666;8.948;2023-07-09T01:57:29;4.50;;;4.20;;
20379;SDS011;10349;48.666;8.948;2023-07-09T02:00:03;4.20;;;3.93;;
20379;SDS011;10349;48.666;8.948;2023-07-09T02:02:42;4.27;;;3.87;;
20379;SDS011;10349;48.666;8.948;2023-07-09T02:05:11;5.70;;;4.17;;
20379;SDS011;10349;48.666;8.948;2023-07-09T02:07:41;4.27;;;3.90;;
20379;SDS011;10349;48.666;8.948;2023-07-09T02:10:07;5.17;;;4.40;;
20379;SDS011;10349;48.666;8.948;2023-07-09T02:12:33;4.33;;;4.00;;
20379;SDS011;10349;48.666;8.948;2023-07-09T02:14:59;4.60;;;4.20;;
20379;SDS011;10349;48.666;8.948;2023-07-09T02:17:24;4.67;;;4.27;;
20379;SDS011;10349;48.666;8.948;2023-07-09T02:19:50;5.33;;;4.93;;
20379;SDS011;10349;48.666;8.948;2023-07-09T02:22:16;7.33;;;5.03;;
20379;SDS011;10349;48.666;8.948;2023-07-09T02:24:44;7.60;;;4.40;;
20379;SDS011;10349;48.666;8.948;2023-07-09T02:27:10;4.37;;;3.97;;
20379;SDS011;10349;48.666;8.948;2023-07-09T02:29:37;4.17;;;3.97;;
20379;SDS011;10349;48.666;8.948;2023-07-09T02:32:03;4.30;;;4.00;;
20379;SDS011;10349;48.666;8.948;2023-07-09T02:34:30;3.93;;;3.63;;
20379;SDS011;10349;48.666;8.948;2023-07-09T02:36:56;4.37;;;3.97;;
20379;SDS011;10349;48.666;8.948;2023-07-09T02:39:23;6.53;;;4.87;;
20379;SDS011;10349;48.666;8.948;2023-07-09T02:41:50;3.53;;;3.33;;
20379;SDS011;10349;48.666;8.948;2023-07-09T02:44:16;4.30;;;3.90;;
20379;SDS011;10349;48.666;8.948;2023-07-09T02:46:42;5.63;;;4.97;;
20379;SDS011;10349;48.666;8.948;2023-07-09T02:49:09;4.60;;;4.10;;
20379;SDS011;10349;48.666;8.948;2023-07-09T02:51:36;4.50;;;4.10;;
20379;SDS011;10349;48.666;8.948;2023-07-09T02:54:03;4.73;;;4.33;;
20379;SDS011;10349;48.666;8.948;2023-07-09T02:56:30;4.43;;;4.03;;
20379;SDS011;10349;48.666;8.948;2023-07-09T02:58:56;4.80;;;4.40;;
20379;SDS011;10349;48.666;8.948;2023-07-09T03:01:22;5.23;;;4.50;;
20379;SDS011;10349;48.666;8.948;2023-07-09T03:03:52;5.30;;;4.80;;
20379;SDS011;10349;48.666;8.948;2023-07-09T03:06:20;4.40;;;4.10;;
20379;SDS011;10349;48.666;8.948;2023-07-09T03:08:47;6.80;;;4.80;;
20379;SDS011;10349;48.666;8.948;2023-07-09T03:11:13;4.10;;;3.80;;
20379;SDS011;10349;48.666;8.948;2023-07-09T03:13:40;4.73;;;4.40;;
20379;SDS011;10349;48.666;8.948;2023-07-09T03:16:06;6.37;;;5.40;;
20379;SDS011;10349;48.666;8.948;2023-07-09T03:18:32;4.90;;;4.50;;
20379;SDS011;10349;48.666;8.948;2023-07-09T03:20:58;5.60;;;4.10;;
20379;SDS011;10349;48.666;8.948;2023-07-09T03:23:24;3.90;;;3.67;;
20379;SDS011;10349;48.666;8.948;2023-07-09T03:25:50;5.83;;;5.33;;
20379;SDS011;10349;48.666;8.948;2023-07-09T03:28:16;5.57;;;4.60;;
20379;SDS011;10349;48.666;8.948;2023-07-09T03:30:42;4.80;;;4.50;;
20379;SDS011;10349;48.666;8.948;2023-07-09T03:33:10;6.13;;;5.50;;
20379;SDS011;10349;48.666;8.948;2023-07-09T03:35:37;5.13;;;4.80;;
20379;SDS011;10349;48.666;8.948;2023-07-09T03:38:06;5.10;;;4.80;;
20379;SDS011;10349;48.666;8.948;2023-07-09T03:40:32;4.70;;;4.30;;
20379;SDS011;10349;48.666;8.948;2023-07-09T03:42:58;4.90;;;4.50;;
20379;SDS011;10349;48.666;8.948;2023-07-09T03:45:30;5.40;;;4.90;;
20379;SDS011;10349;48.666;8.948;2023-07-09T03:47:57;5.90;;;4.40;;
20379;SDS011;10349;48.666;8.948;2023-07-09T03:50:22;5.70;;;4.40;;
20379;SDS011;10349;48.666;8.948;2023-07-09T03:52:48;5.20;;;4.70;;
20379;SDS011;10349;48.666;8.948;2023-07-09T03:55:14;5.17;;;4.77;;
20379;SDS011;10349;48.666;8.948;2023-07-09T03:57:40;5.43;;;4.93;;
20379;SDS011;10349;48.666;8.948;2023-07-09T04:00:06;5.70;;;5.20;;
20379;SDS011;10349;48.666;8.948;2023-07-09T04:02:44;4.80;;;4.40;;
20379;SDS011;10349;48.666;8.948;2023-07-09T04:05:10;6.50;;;4.40;;
20379;SDS011;10349;48.666;8.948;2023-07-09T04:07:36;5.30;;;3.80;;
20379;SDS011;10349;48.666;8.948;2023-07-09T04:10:03;5.77;;;5.20;;
20379;SDS011;10349;48.666;8.948;2023-07-09T04:12:29;6.47;;;4.50;;
20379;SDS011;10349;48.666;8.948;2023-07-09T04:14:55;5.63;;;5.03;;
20379;SDS011;10349;48.666;8.948;2023-07-09T04:17:21;5.77;;;5.20;;
20379;SDS011;10349;48.666;8.948;2023-07-09T04:19:48;5.23;;;4.67;;
20379;SDS011;10349;48.666;8.948;2023-07-09T04:22:14;6.50;;;5.33;;
20379;SDS011;10349;48.666;8.948;2023-07-09T04:24:40;4.73;;;4.33;;
20379;SDS011;10349;48.666;8.948;2023-07-09T04:27:06;5.20;;;4.50;;
20379;SDS011;10349;48.666;8.948;2023-07-09T04:29:32;7.23;;;5.23;;
20379;SDS011;10349;48.666;8.948;2023-07-09T04:32:04;6.30;;;5.80;;
20379;SDS011;10349;48.666;8.948;2023-07-09T04:34:36;5.43;;;4.30;;
20379;SDS011;10349;48.666;8.948;2023-07-09T04:37:04;5.70;;;5.20;;
20379;SDS011;10349;48.666;8.948;2023-07-09T04:39:34;7.20;;;5.13;;
20379;SDS011;10349;48.666;8.948;2023-07-09T04:42:03;5.47;;;4.97;;
20379;SDS011;10349;48.666;8.948;2023-07-09T04:44:35;5.90;;;5.20;;
20379;SDS011;10349;48.666;8.948;2023-07-09T04:47:01;5.80;;;5.13;;
20379;SDS011;10349;48.666;8.948;2023-07-09T04:49:26;6.70;;;5.60;;
20379;SDS011;10349;48.666;8.948;2023-07-09T04:51:52;9.23;;;5.30;;
20379;SDS011;10349;48.666;8.948;2023-07-09T04:54:18;6.33;;;5.73;;
20379;SDS011;10349;48.666;8.948;2023-07-09T04:56:43;5.57;;;4.80;;
20379;SDS011;10349;48.666;8.948;2023-07-09T04:59:10;5.67;;;5.10;;
20379;SDS011;10349;48.666;8.948;2023-07-09T05:01:36;6.17;;;5.57;;
20379;SDS011;10349;48.666;8.948;2023-07-09T05:04:02;5.03;;;4.63;;
20379;SDS011;10349;48.666;8.948;2023-07-09T05:06:28;5.60;;;5.10;;
20379;SDS011;10349;48.666;8.948;2023-07-09T05:08:54;5.57;;;5.07;;
20379;SDS011;10349;48.666;8.948;2023-07-09T05:11:20;5.67;;;5.27;;
20379;SDS011;10349;48.666;8.948;2023-07-09T05:13:46;5.03;;;4.57;;
20379;SDS011;10349;48.666;8.948;2023-07-09T05:16:11;6.13;;;5.53;;
20379;SDS011;10349;48.666;8.948;2023-07-09T05:18:37;12.57;;;5.80;;
20379;SDS011;10349;48.666;8.948;2023-07-09T05:21:03;5.67;;;5.23;;
20379;SDS011;10349;48.666;8.948;2023-07-09T05:23:28;5.10;;;4.70;;
20379;SDS011;10349;48.666;8.948;2023-07-09T05:25:58;7.10;;;5.10;;
20379;SDS011;10349;48.666;8.948;2023-07-09T05:28:24;6.13;;;5.10;;
20379;SDS011;10349;48.666;8.948;2023-07-09T05:30:50;6.47;;;5.33;;
20379;SDS011;10349;48.666;8.948;2023-07-09T05:33:16;6.10;;;5.47;;
20379;SDS011;10349;48.666;8.948;2023-07-09T05:35:43;6.27;;;5.67;;
20379;SDS011;10349;48.666;8.948;2023-07-09T05:38:10;5.03;;;4.63;;
20379;SDS011;10349;48.666;8.948;2023-07-09T05:40:35;6.07;;;5.47;;
20379;SDS011;10349;48.666;8.948;2023-07-09T05:43:01;6.30;;;5.57;;
20379;SDS011;10349;48.666;8.948;2023-07-09T05:45:27;8.37;;;5.80;;
20379;SDS011;10349;48.666;8.948;2023-07-09T05:47:52;5.30;;;4.80;;
20379;SDS011;10349;48.666;8.948;2023-07-09T05:50:18;4.60;;;4.30;;
20379;SDS011;10349;48.666;8.948;2023-07-09T05:52:44;5.57;;;5.17;;
20379;SDS011;10349;48.666;8.948;2023-07-09T05:55:09;5.27;;;4.87;;
20379;SDS011;10349;48.666;8.948;2023-07-09T05:57:35;5.13;;;4.67;;
20379;SDS011;10349;48.666;8.948;2023-07-09T06:00:04;6.07;;;5.50;;
20379;SDS011;10349;48.666;8.948;2023-07-09T06:02:38;7.10;;;5.30;;
20379;SDS011;10349;48.666;8.948;2023-07-09T06:05:04;6.30;;;5.73;;
20379;SDS011;10349;48.666;8.948;2023-07-09T06:07:34;8.67;;;5.87;;
20379;SDS011;10349;48.666;8.948;2023-07-09T06:10:01;6.20;;;5.70;;
20379;SDS011;10349;48.666;8.948;2023-07-09T06:12:26;6.20;;;5.70;;
20379;SDS011;10349;48.666;8.948;2023-07-09T06:14:52;5.93;;;5.43;;
20379;SDS011;10349;48.666;8.948;2023-07-09T06:17:17;5.80;;;5.07;;
20379;SDS011;10349;48.666;8.948;2023-07-09T06:19:43;5.53;;;5.03;;
20379;SDS011;10349;48.666;8.948;2023-07-09T06:22:12;6.17;;;5.67;;
20379;SDS011;10349;48.666;8.948;2023-07-09T06:24:40;6.10;;;5.60;;
20379;SDS011;10349;48.666;8.948;2023-07-09T06:27:06;6.60;;;5.00;;
20379;SDS011;10349;48.666;8.948;2023-07-09T06:29:32;7.33;;;5.50;;
20379;SDS011;10349;48.666;8.948;2023-07-09T06:31:57;6.03;;;5.27;;
20379;SDS011;10349;48.666;8.948;2023-07-09T06:34:23;5.83;;;5.07;;
20379;SDS011;10349;48.666;8.948;2023-07-09T06:36:49;7.23;;;5.90;;
20379;SDS011;10349;48.666;8.948;2023-07-09T06:39:14;5.70;;;5.20;;
20379;SDS011;10349;48.666;8.948;2023-07-09T06:41:41;11.03;;;5.17;;
20379;SDS011;10349;48.666;8.948;2023-07-09T06:44:24;5.63;;;5.10;;
20379;SDS011;10349;48.666;8.948;2023-07-09T06:46:52;7.27;;;5.00;;
20379;SDS011;10349;48.666;8.948;2023-07-09T06:49:18;5.50;;;4.77;;
20379;SDS011;10349;48.666;8.948;2023-07-09T06:51:43;5.63;;;5.13;;
20379;SDS011;10349;48.666;8.948;2023-07-09T06:54:11;5.43;;;5.03;;
20379;SDS011;10349;48.666;8.948;2023-07-09T06:56:37;6.37;;;5.87;;
20379;SDS011;10349;48.666;8.948;2023-07-09T06:59:03;5.10;;;4.67;;
20379;SDS011;10349;48.666;8.948;2023-07-09T07:01:29;5.40;;;5.00;;
20379;SDS011;10349;48.666;8.948;2023-07-09T07:03:55;6.03;;;4.97;;
20379;SDS011;10349;48.666;8.948;2023-07-09T07:06:21;5.10;;;4.60;;
20379;SDS011;10349;48.666;8.948;2023-07-09T07:08:46;4.47;;;4.20;;
20379;SDS011;10349;48.666;8.948;2023-07-09T07:11:12;4.70;;;4.27;;
20379;SDS011;10349;48.666;8.948;2023-07-09T07:13:39;4.73;;;4.33;;
20379;SDS011;10349;48.666;8.948;2023-07-09T07:16:07;4.40;;;4.10;;
20379;SDS011;10349;48.666;8.948;2023-07-09T07:18:34;5.40;;;4.40;;
20379;SDS011;10349;48.666;8.948;2023-07-09T07:21:00;5.03;;;4.60;;
20379;SDS011;10349;48.666;8.948;2023-07-09T07:23:26;4.40;;;4.10;;
20379;SDS011;10349;48.666;8.948;2023-07-09T07:25:52;4.40;;;4.00;;
20379;SDS011;10349;48.666;8.948;2023-07-09T07:28:17;3.87;;;3.47;;
20379;SDS011;10349;48.666;8.948;2023-07-09T07:30:44;4.20;;;3.80;;
20379;SDS011;10349;48.666;8.948;2023-07-09T07:33:10;4.60;;;4.20;;
20379;SDS011;10349;48.666;8.948;2023-07-09T07:35:36;4.20;;;3.97;;
20379;SDS011;10349;48.666;8.948;2023-07-09T07:38:02;4.50;;;4.20;;
20379;SDS011;10349;48.666;8.948;2023-07-09T07:40:28;4.27;;;3.97;;
20379;SDS011;10349;48.666;8.948;2023-07-09T07:42:54;4.30;;;4.00;;
20379;SDS011;10349;48.666;8.948;2023-07-09T07:45:20;4.57;;;4.17;;
20379;SDS011;10349;48.666;8.948;2023-07-09T07:47:46;5.93;;;5.07;;
20379;SDS011;10349;48.666;8.948;2023-07-09T07:50:11;4.00;;;3.60;;
20379;SDS011;10349;48.666;8.948;2023-07-09T07:52:37;3.37;;;3.17;;
20379;SDS011;10349;48.666;8.948;2023-07-09T07:55:06;4.30;;;4.00;;
20379;SDS011;10349;48.666;8.948;2023-07-09T07:57:33;3.80;;;3.50;;
20379;SDS011;10349;48.666;8.948;2023-07-09T07:59:58;3.07;;;2.80;;
20379;SDS011;10349;48.666;8.948;2023-07-09T08:02:24;3.73;;;3.40;;
20379;SDS011;10349;48.666;8.948;2023-07-09T08:04:50;3.80;;;3.40;;
20379;SDS011;10349;48.666;8.948;2023-07-09T08:07:16;3.73;;;3.43;;
20379;SDS011;10349;48.666;8.948;2023-07-09T08:09:44;5.83;;;5.27;;
20379;SDS011;10349;48.666;8.948;2023-07-09T08:12:11;3.83;;;3.53;;
20379;SDS011;10349;48.666;8.948;2023-07-09T08:14:38;3.33;;;3.03;;
20379;SDS011;10349;48.666;8.948;2023-07-09T08:17:05;2.97;;;2.77;;
20379;SDS011;10349;48.666;8.948;2023-07-09T08:19:31;4.13;;;3.33;;
20379;SDS011;10349;48.666;8.948;2023-07-09T08:22:08;3.27;;;2.97;;
20379;SDS011;10349;48.666;8.948;2023-07-09T08:24:33;4.90;;;3.40;;
20379;SDS011;10349;48.666;8.948;2023-07-09T08:26:59;4.57;;;3.27;;
20379;SDS011;10349;48.666;8.948;2023-07-09T08:29:25;3.93;;;3.57;;
20379;SDS011;10349;48.666;8.948;2023-07-09T08:31:51;3.37;;;3.13;;
20379;SDS011;10349;48.666;8.948;2023-07-09T08:34:17;5.10;;;3.37;;
20379;SDS011;10349;48.666;8.948;2023-07-09T08:36:42;4.03;;;3.73;;
20379;SDS011;10349;48.666;8.948;2023-07-09T08:39:09;9.30;;;3.70;;
20379;SDS011;10349;48.666;8.948;2023-07-09T08:44:21;3.80;;;3.17;;
20379;SDS011;10349;48.666;8.948;2023-07-09T08:47:11;3.53;;;3.33;;
20379;SDS011;10349;48.666;8.948;2023-07-09T08:49:51;4.47;;;4.07;;
20379;SDS011;10349;48.666;8.948;2023-07-09T08:52:24;3.63;;;3.33;;
20379;SDS011;10349;48.666;8.948;2023-07-09T08:54:55;3.70;;;3.40;;
20379;SDS011;10349;48.666;8.948;2023-07-09T08:57:27;3.53;;;3.23;;
20379;SDS011;10349;48.666;8.948;2023-07-09T09:00:02;4.07;;;3.70;;
20379;SDS011;10349;48.666;8.948;2023-07-09T09:03:05;4.47;;;4.20;;
20379;SDS011;10349;48.666;8.948;2023-07-09T09:05:36;3.87;;;3.57;;
20379;SDS011;10349;48.666;8.948;2023-07-09T09:13:31;4.10;;;3.77;;
20379;SDS011;10349;48.666;8.948;2023-07-09T09:16:00;3.63;;;3.37;;
20379;SDS011;10349;48.666;8.948;2023-07-09T09:18:33;4.00;;;3.70;;
20379;SDS011;10349;48.666;8.948;2023-07-09T09:23:47;3.47;;;3.27;;
20379;SDS011;10349;48.666;8.948;2023-07-09T09:26:28;4.27;;;3.93;;
20379;SDS011;10349;48.666;8.948;2023-07-09T09:28:58;4.17;;;3.87;;
20379;SDS011;10349;48.666;8.948;2023-07-09T09:31:24;5.57;;;3.10;;
20379;SDS011;10349;48.666;8.948;2023-07-09T09:33:52;4.50;;;3.30;;
20379;SDS011;10349;48.666;8.948;2023-07-09T09:36:22;2.93;;;2.73;;
20379;SDS011;10349;48.666;8.948;2023-07-09T09:38:50;3.70;;;3.40;;
20379;SDS011;10349;48.666;8.948;2023-07-09T09:41:17;3.90;;;3.13;;
20379;SDS011;10349;48.666;8.948;2023-07-09T09:43:46;3.80;;;3.40;;
20379;SDS011;10349;48.666;8.948;2023-07-09T09:46:20;3.87;;;3.60;;
20379;SDS011;10349;48.666;8.948;2023-07-09T09:48:48;3.93;;;3.07;;
20379;SDS011;10349;48.666;8.948;2023-07-09T09:51:16;3.53;;;3.13;;
20379;SDS011;10349;48.666;8.948;2023-07-09T09:53:50;3.50;;;3.30;;
20379;SDS011;10349;48.666;8.948;2023-07-09T09:56:25;3.50;;;3.20;;
20379;SDS011;10349;48.666;8.948;2023-07-09T09:58:53;3.27;;;3.07;;
20379;SDS011;10349;48.666;8.948;2023-07-09T10:01:21;3.47;;;3.00;;
20379;SDS011;10349;48.666;8.948;2023-07-09T10:03:54;3.23;;;2.87;;
20379;SDS011;10349;48.666;8.948;2023-07-09T10:06:28;3.70;;;3.40;;
20379;SDS011;10349;48.666;8.948;2023-07-09T10:09:02;2.90;;;2.70;;
20379;SDS011;10349;48.666;8.948;2023-07-09T10:11:49;2.90;;;2.70;;
20379;SDS011;10349;48.666;8.948;2023-07-09T10:17:21;3.87;;;3.57;;
20379;SDS011;10349;48.666;8.948;2023-07-09T10:19:49;4.33;;;3.93;;
20379;SDS011;10349;48.666;8.948;2023-07-09T10:22:52;3.30;;;3.10;;
20379;SDS011;10349;48.666;8.948;2023-07-09T10:25:23;3.57;;;3.27;;
20379;SDS011;10349;48.666;8.948;2023-07-09T10:28:43;4.23;;;3.80;;
20379;SDS011;10349;48.666;8.948;2023-07-09T10:30:49;3.07;;;2.87;;
20379;SDS011;10349;48.666;8.948;2023-07-09T10:33:38;3.30;;;3.10;;
20379;SDS011;10349;48.666;8.948;2023-07-09T10:36:12;3.13;;;2.93;;
20379;SDS011;10349;48.666;8.948;2023-07-09T10:39:01;3.10;;;2.90;;
20379;SDS011;10349;48.666;8.948;2023-07-09T10:41:38;4.23;;;3.30;;
20379;SDS011;10349;48.666;8.948;2023-07-09T10:44:16;3.70;;;3.50;;
20379;SDS011;10349;48.666;8.948;2023-07-09T10:46:54;3.37;;;3.07;;
20379;SDS011;10349;48.666;8.948;2023-07-09T10:49:23;3.00;;;2.80;;
20379;SDS011;10349;48.666;8.948;2023-07-09T10:52:03;2.83;;;2.63;;
20379;SDS011;10349;48.666;8.948;2023-07-09T10:54:52;3.97;;;3.37;;
20379;SDS011;10349;48.666;8.948;2023-07-09T10:57:31;3.07;;;2.87;;
20379;SDS011;10349;48.666;8.948;2023-07-09T11:00:15;3.70;;;3.10;;
20379;SDS011;10349;48.666;8.948;2023-07-09T11:02:44;2.87;;;2.70;;
20379;SDS011;10349;48.666;8.948;2023-07-09T11:05:10;4.47;;;2.73;;
20379;SDS011;10349;48.666;8.948;2023-07-09T11:07:48;3.83;;;3.63;;
20379;SDS011;10349;48.666;8.948;2023-07-09T11:13:07;4.60;;;3.70;;
20379;SDS011;10349;48.666;8.948;2023-07-09T11:15:39;3.13;;;2.80;;
20379;SDS011;10349;48.666;8.948;2023-07-09T11:18:13;3.37;;;3.17;;
20379;SDS011;10349;48.666;8.948;2023-07-09T11:20:46;2.90;;;2.63;;
20379;SDS011;10349;48.666;8.948;2023-07-09T11:23:24;2.70;;;2.60;;
20379;SDS011;10349;48.666;8.948;2023-07-09T11:26:10;3.07;;;2.87;;
20379;SDS011;10349;48.666;8.948;2023-07-09T11:28:45;4.20;;;3.00;;
20379;SDS011;10349;48.666;8.948;2023-07-09T11:31:23;4.60;;;3.20;;
20379;SDS011;10349;48.666;8.948;2023-07-09T11:33:59;3.70;;;3.40;;
20379;SDS011;10349;48.666;8.948;2023-07-09T11:37:00;3.53;;;3.33;;
20379;SDS011;10349;48.666;8.948;2023-07-09T11:44:49;4.47;;;3.10;;
20379;SDS011;10349;48.666;8.948;2023-07-09T11:47:25;3.57;;;3.37;;
20379;SDS011;10349;48.666;8.948;2023-07-09T11:50:02;4.03;;;3.73;;
20379;SDS011;10349;48.666;8.948;2023-07-09T11:52:41;7.30;;;3.27;;
20379;SDS011;10349;48.666;8.948;2023-07-09T11:58:08;5.73;;;3.70;;
20379;SDS011;10349;48.666;8.948;2023-07-09T12:00:55;3.90;;;3.57;;
20379;SDS011;10349;48.666;8.948;2023-07-09T12:03:27;4.00;;;3.70;;
20379;SDS011;10349;48.666;8.948;2023-07-09T12:06:05;5.43;;;3.83;;
20379;SDS011;10349;48.666;8.948;2023-07-09T12:08:40;3.87;;;3.30;;
20379;SDS011;10349;48.666;8.948;2023-07-09T12:11:27;3.80;;;3.53;;
20379;SDS011;10349;48.666;8.948;2023-07-09T12:13:54;3.87;;;3.40;;
20379;SDS011;10349;48.666;8.948;2023-07-09T12:16:52;4.03;;;3.33;;
20379;SDS011;10349;48.666;8.948;2023-07-09T12:19:19;4.67;;;3.80;;
20379;SDS011;10349;48.666;8.948;2023-07-09T12:21:55;3.17;;;2.97;;
20379;SDS011;10349;48.666;8.948;2023-07-09T12:24:28;5.03;;;3.00;;
20379;SDS011;10349;48.666;8.948;2023-07-09T12:27:02;3.23;;;3.03;;
20379;SDS011;10349;48.666;8.948;2023-07-09T12:29:42;3.83;;;3.63;;
20379;SDS011;10349;48.666;8.948;2023-07-09T12:32:14;4.40;;;4.00;;
20379;SDS011;10349;48.666;8.948;2023-07-09T12:34:41;3.53;;;3.33;;
20379;SDS011;10349;48.666;8.948;2023-07-09T12:37:09;5.97;;;4.30;;
20379;SDS011;10349;48.666;8.948;2023-07-09T12:39:39;4.67;;;2.70;;
20379;SDS011;10349;48.666;8.948;2023-07-09T12:42:09;3.70;;;3.40;;
20379;SDS011;10349;48.666;8.948;2023-07-09T12:44:42;4.63;;;4.17;;
20379;SDS011;10349;48.666;8.948;2023-07-09T12:47:08;4.70;;;4.30;;
20379;SDS011;10349;48.666;8.948;2023-07-09T12:49:43;4.43;;;4.03;;
20379;SDS011;10349;48.666;8.948;2023-07-09T12:52:14;3.67;;;3.40;;
20379;SDS011;10349;48.666;8.948;2023-07-09T12:54:58;4.30;;;3.10;;
20379;SDS011;10349;48.666;8.948;2023-07-09T12:57:24;4.70;;;3.07;;
20379;SDS011;10349;48.666;8.948;2023-07-09T12:59:51;7.93;;;3.73;;
20379;SDS011;10349;48.666;8.948;2023-07-09T13:02:20;3.33;;;3.03;;
20379;SDS011;10349;48.666;8.948;2023-07-09T13:04:57;4.23;;;3.73;;
20379;SDS011;10349;48.666;8.948;2023-07-09T13:09:53;3.50;;;3.20;;
20379;SDS011;10349;48.666;8.948;2023-07-09T13:12:21;3.80;;;2.93;;
20379;SDS011;10349;48.666;8.948;2023-07-09T13:14:55;3.43;;;3.00;;
20379;SDS011;10349;48.666;8.948;2023-07-09T13:17:21;3.83;;;2.80;;
20379;SDS011;10349;48.666;8.948;2023-07-09T13:19:47;6.13;;;3.03;;
20379;SDS011;10349;48.666;8.948;2023-07-09T13:22:17;3.17;;;2.87;;
20379;SDS011;10349;48.666;8.948;2023-07-09T13:24:44;3.47;;;2.60;;
20379;SDS011;10349;48.666;8.948;2023-07-09T13:27:14;3.60;;;3.20;;
20379;SDS011;10349;48.666;8.948;2023-07-09T13:29:41;2.77;;;2.57;;
20379;SDS011;10349;48.666;8.948;2023-07-09T13:32:15;2.57;;;2.37;;
20379;SDS011;10349;48.666;8.948;2023-07-09T13:34:41;2.60;;;2.40;;
20379;SDS011;10349;48.666;8.948;2023-07-09T13:37:12;5.30;;;2.90;;
20379;SDS011;10349;48.666;8.948;2023-07-09T13:39:39;6.47;;;3.53;;
20379;SDS011;10349;48.666;8.948;2023-07-09T13:42:09;3.50;;;2.70;;
20379;SDS011;10349;48.666;8.948;2023-07-09T13:44:38;3.23;;;3.03;;
20379;SDS011;10349;48.666;8.948;2023-07-09T13:47:04;3.10;;;2.80;;
20379;SDS011;10349;48.666;8.948;2023-07-09T13:49:31;3.77;;;2.90;;
20379;SDS011;10349;48.666;8.948;2023-07-09T13:51:57;4.90;;;3.20;;
20379;SDS011;10349;48.666;8.948;2023-07-09T13:54:26;4.27;;;2.50;;
20379;SDS011;10349;48.666;8.948;2023-07-09T13:57:00;2.83;;;2.63;;
20379;SDS011;10349;48.666;8.948;2023-07-09T13:59:27;2.77;;;2.57;;
20379;SDS011;10349;48.666;8.948;2023-07-09T14:01:54;3.50;;;2.83;;
20379;SDS011;10349;48.666;8.948;2023-07-09T14:04:22;3.43;;;2.57;;
20379;SDS011;10349;48.666;8.948;2023-07-09T14:06:49;3.27;;;2.60;;
20379;SDS011;10349;48.666;8.948;2023-07-09T14:09:15;3.57;;;2.60;;
20379;SDS011;10349;48.666;8.948;2023-07-09T14:11:43;3.70;;;3.40;;
20379;SDS011;10349;48.666;8.948;2023-07-09T14:14:50;3.00;;;2.67;;
20379;SDS011;10349;48.666;8.948;2023-07-09T14:17:11;2.70;;;2.50;;
20379;SDS011;10349;48.666;8.948;2023-07-09T14:19:37;4.87;;;2.50;;
20379;SDS011;10349;48.666;8.948;2023-07-09T14:22:04;3.17;;;2.87;;
20379;SDS011;10349;48.666;8.948;2023-07-09T14:24:58;12.73;;;3.40;;
20379;SDS011;10349;48.666;8.948;2023-07-09T14:27:24;2.67;;;2.47;;
20379;SDS011;10349;48.666;8.948;2023-07-09T14:29:50;2.97;;;2.77;;
20379;SDS011;10349;48.666;8.948;2023-07-09T14:32:33;2.63;;;2.53;;
20379;SDS011;10349;48.666;8.948;2023-07-09T14:35:10;4.00;;;3.50;;
20379;SDS011;10349;48.666;8.948;2023-07-09T14:37:37;2.60;;;2.43;;
20379;SDS011;10349;48.666;8.948;2023-07-09T14:40:03;3.30;;;2.80;;
20379;SDS011;10349;48.666;8.948;2023-07-09T14:42:30;3.33;;;3.10;;
20379;SDS011;10349;48.666;8.948;2023-07-09T14:44:56;3.43;;;2.80;;
20379;SDS011;10349;48.666;8.948;2023-07-09T14:47:22;3.13;;;2.80;;
20379;SDS011;10349;48.666;8.948;2023-07-09T14:49:48;3.80;;;3.50;;
20379;SDS011;10349;48.666;8.948;2023-07-09T14:52:17;2.90;;;2.60;;
20379;SDS011;10349;48.666;8.948;2023-07-09T14:54:44;2.60;;;2.40;;
20379;SDS011;10349;48.666;8.948;2023-07-09T14:59:46;3.03;;;2.63;;
20379;SDS011;10349;48.666;8.948;2023-07-09T15:02:23;2.93;;;2.23;;
20379;SDS011;10349;48.666;8.948;2023-07-09T15:04:56;4.20;;;2.87;;
20379;SDS011;10349;48.666;8.948;2023-07-09T15:07:22;3.70;;;3.33;;
20379;SDS011;10349;48.666;8.948;2023-07-09T15:09:48;4.40;;;3.00;;
20379;SDS011;10349;48.666;8.948;2023-07-09T15:12:18;3.20;;;2.90;;
20379;SDS011;10349;48.666;8.948;2023-07-09T15:14:45;2.83;;;2.63;;
20379;SDS011;10349;48.666;8.948;2023-07-09T15:17:11;4.63;;;3.60;;
20379;SDS011;10349;48.666;8.948;2023-07-09T15:19:37;8.43;;;2.93;;
20379;SDS011;10349;48.666;8.948;2023-07-09T15:22:03;3.60;;;2.73;;
20379;SDS011;10349;48.666;8.948;2023-07-09T15:24:31;3.33;;;3.13;;
20379;SDS011;10349;48.666;8.948;2023-07-09T15:26:59;3.40;;;3.10;;
20379;SDS011;10349;48.666;8.948;2023-07-09T15:29:26;3.27;;;2.90;;
20379;SDS011;10349;48.666;8.948;2023-07-09T15:31:53;2.90;;;2.70;;
20379;SDS011;10349;48.666;8.948;2023-07-09T15:34:18;3.17;;;2.90;;
20379;SDS011;10349;48.666;8.948;2023-07-09T15:36:48;2.97;;;2.77;;